sensor_id;sensor_type;location;lat;lon;timestamp;P1;durP1;ratioP1;P2;durP2;ratioP2
75550;SDS011;65071;53.082;18.218;2023-02-28T00:00:37;62.50;;;20.50;;
75550;SDS011;65071;53.082;18.218;2023-02-28T00:03:15;67.40;;;21.60;;
75550;SDS011;65071;53.082;18.218;2023-02-28T00:05:42;67.40;;;22.90;;
75550;SDS011;65071;53.082;18.218;2023-02-28T00:08:09;61.70;;;20.70;;
75550;SDS011;65071;53.082;18.218;2023-02-28T00:10:36;64.10;;;22.20;;
75550;SDS011;65071;53.082;18.218;2023-02-28T00:13:03;54.50;;;18.90;;
75550;SDS011;65071;53.082;18.218;2023-02-28T00:15:32;42.80;;;15.60;;
75550;SDS011;65071;53.082;18.218;2023-02-28T00:17:59;43.90;;;16.00;;
75550;SDS011;65071;53.082;18.218;2023-02-28T00:20:26;43.60;;;16.20;;
75550;SDS011;65071;53.082;18.218;2023-02-28T00:22:53;45.50;;;16.60;;
75550;SDS011;65071;53.082;18.218;2023-02-28T00:25:21;54.40;;;18.20;;
75550;SDS011;65071;53.082;18.218;2023-02-28T00:27:50;49.10;;;17.20;;
75550;SDS011;65071;53.082;18.218;2023-02-28T00:30:20;42.00;;;16.20;;
75550;SDS011;65071;53.082;18.218;2023-02-28T00:32:49;45.60;;;17.20;;
75550;SDS011;65071;53.082;18.218;2023-02-28T00:35:16;35.90;;;14.50;;
75550;SDS011;65071;53.082;18.218;2023-02-28T00:37:43;32.90;;;11.90;;
75550;SDS011;65071;53.082;18.218;2023-02-28T00:40:10;35.90;;;12.70;;
75550;SDS011;65071;53.082;18.218;2023-02-28T00:42:38;32.40;;;10.50;;
75550;SDS011;65071;53.082;18.218;2023-02-28T00:45:05;32.00;;;11.30;;
75550;SDS011;65071;53.082;18.218;2023-02-28T00:47:33;33.80;;;11.90;;
75550;SDS011;65071;53.082;18.218;2023-02-28T00:50:00;39.80;;;12.80;;
75550;SDS011;65071;53.082;18.218;2023-02-28T00:52:28;48.70;;;15.00;;
75550;SDS011;65071;53.082;18.218;2023-02-28T00:54:55;50.70;;;14.20;;
75550;SDS011;65071;53.082;18.218;2023-02-28T00:57:22;39.00;;;12.60;;
75550;SDS011;65071;53.082;18.218;2023-02-28T00:59:49;47.60;;;14.40;;
75550;SDS011;65071;53.082;18.218;2023-02-28T01:02:15;34.10;;;11.80;;
75550;SDS011;65071;53.082;18.218;2023-02-28T01:04:44;42.80;;;13.00;;
75550;SDS011;65071;53.082;18.218;2023-02-28T01:07:11;39.90;;;12.70;;
75550;SDS011;65071;53.082;18.218;2023-02-28T01:09:37;48.40;;;16.00;;
75550;SDS011;65071;53.082;18.218;2023-02-28T01:12:04;55.30;;;16.60;;
75550;SDS011;65071;53.082;18.218;2023-02-28T01:14:33;63.50;;;16.90;;
75550;SDS011;65071;53.082;18.218;2023-02-28T01:17:00;64.80;;;16.80;;
75550;SDS011;65071;53.082;18.218;2023-02-28T01:19:27;53.30;;;16.50;;
75550;SDS011;65071;53.082;18.218;2023-02-28T01:21:54;59.40;;;17.30;;
75550;SDS011;65071;53.082;18.218;2023-02-28T01:24:20;64.30;;;16.60;;
75550;SDS011;65071;53.082;18.218;2023-02-28T01:26:47;61.60;;;17.20;;
75550;SDS011;65071;53.082;18.218;2023-02-28T01:29:14;58.20;;;15.30;;
75550;SDS011;65071;53.082;18.218;2023-02-28T01:31:41;55.40;;;15.70;;
75550;SDS011;65071;53.082;18.218;2023-02-28T01:34:08;38.90;;;13.30;;
75550;SDS011;65071;53.082;18.218;2023-02-28T01:36:35;41.70;;;13.90;;
75550;SDS011;65071;53.082;18.218;2023-02-28T01:39:02;35.40;;;13.10;;
75550;SDS011;65071;53.082;18.218;2023-02-28T01:41:30;35.00;;;12.50;;
75550;SDS011;65071;53.082;18.218;2023-02-28T01:46:31;43.00;;;13.00;;
75550;SDS011;65071;53.082;18.218;2023-02-28T01:49:08;39.50;;;12.60;;
75550;SDS011;65071;53.082;18.218;2023-02-28T01:51:43;48.10;;;14.90;;
75550;SDS011;65071;53.082;18.218;2023-02-28T01:54:18;51.00;;;16.10;;
75550;SDS011;65071;53.082;18.218;2023-02-28T01:56:54;45.80;;;13.80;;
75550;SDS011;65071;53.082;18.218;2023-02-28T01:59:27;44.20;;;14.30;;
75550;SDS011;65071;53.082;18.218;2023-02-28T02:01:58;42.70;;;12.20;;
75550;SDS011;65071;53.082;18.218;2023-02-28T02:04:27;39.80;;;13.40;;
75550;SDS011;65071;53.082;18.218;2023-02-28T02:07:03;46.50;;;15.20;;
75550;SDS011;65071;53.082;18.218;2023-02-28T02:09:30;41.90;;;12.50;;
75550;SDS011;65071;53.082;18.218;2023-02-28T02:11:56;51.80;;;15.80;;
75550;SDS011;65071;53.082;18.218;2023-02-28T02:14:31;49.10;;;13.60;;
75550;SDS011;65071;53.082;18.218;2023-02-28T02:17:10;55.90;;;15.40;;
75550;SDS011;65071;53.082;18.218;2023-02-28T02:19:53;52.10;;;14.10;;
75550;SDS011;65071;53.082;18.218;2023-02-28T02:22:52;38.80;;;12.70;;
75550;SDS011;65071;53.082;18.218;2023-02-28T02:25:45;56.40;;;18.30;;
75550;SDS011;65071;53.082;18.218;2023-02-28T02:37:02;64.30;;;19.50;;
75550;SDS011;65071;53.082;18.218;2023-02-28T02:42:21;57.80;;;20.80;;
75550;SDS011;65071;53.082;18.218;2023-02-28T02:44:57;55.70;;;19.20;;
75550;SDS011;65071;53.082;18.218;2023-02-28T02:47:29;60.30;;;19.00;;
75550;SDS011;65071;53.082;18.218;2023-02-28T02:50:00;53.10;;;18.40;;
75550;SDS011;65071;53.082;18.218;2023-02-28T02:52:36;53.60;;;17.60;;
75550;SDS011;65071;53.082;18.218;2023-02-28T02:55:09;68.60;;;19.70;;
75550;SDS011;65071;53.082;18.218;2023-02-28T02:57:49;46.70;;;13.80;;
75550;SDS011;65071;53.082;18.218;2023-02-28T03:00:35;40.40;;;13.50;;
75550;SDS011;65071;53.082;18.218;2023-02-28T03:03:09;41.00;;;13.90;;
75550;SDS011;65071;53.082;18.218;2023-02-28T03:05:48;43.50;;;14.50;;
75550;SDS011;65071;53.082;18.218;2023-02-28T03:08:16;40.30;;;14.10;;
75550;SDS011;65071;53.082;18.218;2023-02-28T03:10:44;45.50;;;16.90;;
75550;SDS011;65071;53.082;18.218;2023-02-28T03:18:53;46.00;;;16.60;;
75550;SDS011;65071;53.082;18.218;2023-02-28T03:21:23;43.40;;;16.20;;
75550;SDS011;65071;53.082;18.218;2023-02-28T03:24:01;48.60;;;15.90;;
75550;SDS011;65071;53.082;18.218;2023-02-28T03:26:34;44.30;;;16.40;;
75550;SDS011;65071;53.082;18.218;2023-02-28T03:29:13;42.70;;;16.30;;
75550;SDS011;65071;53.082;18.218;2023-02-28T03:31:44;37.60;;;16.10;;
75550;SDS011;65071;53.082;18.218;2023-02-28T03:34:23;35.60;;;14.80;;
75550;SDS011;65071;53.082;18.218;2023-02-28T03:36:57;43.00;;;13.90;;
75550;SDS011;65071;53.082;18.218;2023-02-28T03:39:37;33.70;;;12.40;;
75550;SDS011;65071;53.082;18.218;2023-02-28T03:42:09;37.00;;;12.40;;
75550;SDS011;65071;53.082;18.218;2023-02-28T03:44:53;34.20;;;12.70;;
75550;SDS011;65071;53.082;18.218;2023-02-28T03:47:28;30.30;;;11.50;;
75550;SDS011;65071;53.082;18.218;2023-02-28T03:55:37;34.60;;;14.50;;
75550;SDS011;65071;53.082;18.218;2023-02-28T04:01:08;31.50;;;13.30;;
75550;SDS011;65071;53.082;18.218;2023-02-28T04:03:38;34.80;;;12.90;;
75550;SDS011;65071;53.082;18.218;2023-02-28T04:06:07;29.60;;;12.80;;
75550;SDS011;65071;53.082;18.218;2023-02-28T04:08:39;42.00;;;13.60;;
75550;SDS011;65071;53.082;18.218;2023-02-28T04:11:16;34.50;;;13.20;;
75550;SDS011;65071;53.082;18.218;2023-02-28T04:13:56;39.10;;;14.40;;
75550;SDS011;65071;53.082;18.218;2023-02-28T04:16:23;41.80;;;15.50;;
75550;SDS011;65071;53.082;18.218;2023-02-28T04:18:50;47.70;;;16.20;;
75550;SDS011;65071;53.082;18.218;2023-02-28T04:21:16;37.20;;;13.80;;
75550;SDS011;65071;53.082;18.218;2023-02-28T04:23:46;43.40;;;15.20;;
75550;SDS011;65071;53.082;18.218;2023-02-28T04:26:13;46.40;;;16.40;;
75550;SDS011;65071;53.082;18.218;2023-02-28T04:28:40;36.10;;;12.70;;
75550;SDS011;65071;53.082;18.218;2023-02-28T04:31:06;38.60;;;14.80;;
75550;SDS011;65071;53.082;18.218;2023-02-28T04:33:33;43.50;;;14.10;;
75550;SDS011;65071;53.082;18.218;2023-02-28T04:36:01;47.50;;;17.00;;
75550;SDS011;65071;53.082;18.218;2023-02-28T04:38:32;46.90;;;18.30;;
75550;SDS011;65071;53.082;18.218;2023-02-28T04:41:00;45.20;;;15.90;;
75550;SDS011;65071;53.082;18.218;2023-02-28T04:43:27;37.60;;;14.10;;
75550;SDS011;65071;53.082;18.218;2023-02-28T04:45:55;39.50;;;14.30;;
75550;SDS011;65071;53.082;18.218;2023-02-28T04:48:23;45.00;;;15.90;;
75550;SDS011;65071;53.082;18.218;2023-02-28T04:50:51;46.70;;;15.90;;
75550;SDS011;65071;53.082;18.218;2023-02-28T04:53:18;41.60;;;15.00;;
75550;SDS011;65071;53.082;18.218;2023-02-28T04:55:45;52.50;;;16.40;;
75550;SDS011;65071;53.082;18.218;2023-02-28T04:58:14;53.20;;;18.50;;
75550;SDS011;65071;53.082;18.218;2023-02-28T05:03:08;57.60;;;18.00;;
75550;SDS011;65071;53.082;18.218;2023-02-28T05:05:36;57.50;;;18.40;;
75550;SDS011;65071;53.082;18.218;2023-02-28T05:08:02;56.80;;;19.20;;
75550;SDS011;65071;53.082;18.218;2023-02-28T05:10:31;57.50;;;17.60;;
75550;SDS011;65071;53.082;18.218;2023-02-28T05:12:58;59.40;;;19.40;;
75550;SDS011;65071;53.082;18.218;2023-02-28T05:15:25;74.40;;;20.70;;
75550;SDS011;65071;53.082;18.218;2023-02-28T05:17:51;65.20;;;19.10;;
75550;SDS011;65071;53.082;18.218;2023-02-28T05:20:18;60.40;;;20.60;;
75550;SDS011;65071;53.082;18.218;2023-02-28T05:22:45;62.50;;;19.00;;
75550;SDS011;65071;53.082;18.218;2023-02-28T05:25:16;68.80;;;20.60;;
75550;SDS011;65071;53.082;18.218;2023-02-28T05:27:44;75.20;;;22.10;;
75550;SDS011;65071;53.082;18.218;2023-02-28T05:30:11;71.30;;;23.80;;
75550;SDS011;65071;53.082;18.218;2023-02-28T05:32:38;73.20;;;24.60;;
75550;SDS011;65071;53.082;18.218;2023-02-28T05:35:12;62.90;;;23.40;;
75550;SDS011;65071;53.082;18.218;2023-02-28T05:37:39;68.90;;;23.40;;
75550;SDS011;65071;53.082;18.218;2023-02-28T05:40:06;63.60;;;22.80;;
75550;SDS011;65071;53.082;18.218;2023-02-28T05:42:36;66.20;;;22.00;;
75550;SDS011;65071;53.082;18.218;2023-02-28T05:45:04;59.10;;;21.60;;
75550;SDS011;65071;53.082;18.218;2023-02-28T05:47:31;55.60;;;18.80;;
75550;SDS011;65071;53.082;18.218;2023-02-28T05:49:57;57.70;;;20.80;;
75550;SDS011;65071;53.082;18.218;2023-02-28T05:52:24;61.60;;;22.40;;
75550;SDS011;65071;53.082;18.218;2023-02-28T05:54:51;86.30;;;31.30;;
75550;SDS011;65071;53.082;18.218;2023-02-28T05:57:17;121.00;;;41.00;;
75550;SDS011;65071;53.082;18.218;2023-02-28T05:59:44;108.80;;;41.50;;
75550;SDS011;65071;53.082;18.218;2023-02-28T06:02:12;93.90;;;32.30;;
75550;SDS011;65071;53.082;18.218;2023-02-28T06:04:40;73.60;;;25.40;;
75550;SDS011;65071;53.082;18.218;2023-02-28T06:07:08;71.00;;;26.00;;
75550;SDS011;65071;53.082;18.218;2023-02-28T06:09:35;72.00;;;24.50;;
75550;SDS011;65071;53.082;18.218;2023-02-28T06:12:03;78.20;;;28.10;;
75550;SDS011;65071;53.082;18.218;2023-02-28T06:14:32;74.10;;;24.70;;
75550;SDS011;65071;53.082;18.218;2023-02-28T06:17:00;91.40;;;30.00;;
75550;SDS011;65071;53.082;18.218;2023-02-28T06:19:27;82.50;;;29.40;;
75550;SDS011;65071;53.082;18.218;2023-02-28T06:21:55;82.60;;;29.20;;
75550;SDS011;65071;53.082;18.218;2023-02-28T06:24:23;99.10;;;34.80;;
75550;SDS011;65071;53.082;18.218;2023-02-28T06:26:51;97.60;;;32.30;;
75550;SDS011;65071;53.082;18.218;2023-02-28T06:29:17;80.70;;;30.10;;
75550;SDS011;65071;53.082;18.218;2023-02-28T06:31:45;86.00;;;31.70;;
75550;SDS011;65071;53.082;18.218;2023-02-28T06:34:13;84.80;;;27.90;;
75550;SDS011;65071;53.082;18.218;2023-02-28T06:36:40;76.60;;;29.90;;
75550;SDS011;65071;53.082;18.218;2023-02-28T06:39:08;71.50;;;28.00;;
75550;SDS011;65071;53.082;18.218;2023-02-28T06:41:35;72.20;;;27.10;;
75550;SDS011;65071;53.082;18.218;2023-02-28T06:44:12;75.60;;;27.40;;
75550;SDS011;65071;53.082;18.218;2023-02-28T06:46:42;80.10;;;28.10;;
75550;SDS011;65071;53.082;18.218;2023-02-28T06:49:10;67.90;;;27.90;;
75550;SDS011;65071;53.082;18.218;2023-02-28T06:51:41;70.20;;;28.10;;
75550;SDS011;65071;53.082;18.218;2023-02-28T06:54:13;75.80;;;30.80;;
75550;SDS011;65071;53.082;18.218;2023-02-28T06:56:40;80.20;;;36.10;;
75550;SDS011;65071;53.082;18.218;2023-02-28T06:59:06;81.80;;;33.90;;
75550;SDS011;65071;53.082;18.218;2023-02-28T07:01:33;80.40;;;32.30;;
75550;SDS011;65071;53.082;18.218;2023-02-28T07:04:00;72.00;;;29.10;;
75550;SDS011;65071;53.082;18.218;2023-02-28T07:06:27;63.80;;;26.10;;
75550;SDS011;65071;53.082;18.218;2023-02-28T07:08:55;58.40;;;23.70;;
75550;SDS011;65071;53.082;18.218;2023-02-28T07:11:23;41.90;;;17.70;;
75550;SDS011;65071;53.082;18.218;2023-02-28T07:13:54;58.60;;;23.10;;
75550;SDS011;65071;53.082;18.218;2023-02-28T07:16:23;37.90;;;14.60;;
75550;SDS011;65071;53.082;18.218;2023-02-28T07:18:53;36.70;;;14.10;;
75550;SDS011;65071;53.082;18.218;2023-02-28T07:21:21;40.10;;;17.20;;
75550;SDS011;65071;53.082;18.218;2023-02-28T07:23:48;30.20;;;12.30;;
75550;SDS011;65071;53.082;18.218;2023-02-28T07:26:15;31.00;;;12.60;;
75550;SDS011;65071;53.082;18.218;2023-02-28T07:28:44;40.10;;;15.90;;
75550;SDS011;65071;53.082;18.218;2023-02-28T07:31:13;44.40;;;17.50;;
75550;SDS011;65071;53.082;18.218;2023-02-28T07:33:40;52.60;;;21.10;;
75550;SDS011;65071;53.082;18.218;2023-02-28T07:36:09;44.00;;;18.60;;
75550;SDS011;65071;53.082;18.218;2023-02-28T07:38:44;42.40;;;19.10;;
75550;SDS011;65071;53.082;18.218;2023-02-28T07:41:15;36.30;;;15.20;;
75550;SDS011;65071;53.082;18.218;2023-02-28T07:43:43;31.50;;;13.30;;
75550;SDS011;65071;53.082;18.218;2023-02-28T07:46:11;50.20;;;19.50;;
75550;SDS011;65071;53.082;18.218;2023-02-28T07:48:41;31.20;;;12.80;;
75550;SDS011;65071;53.082;18.218;2023-02-28T07:51:09;31.80;;;14.90;;
75550;SDS011;65071;53.082;18.218;2023-02-28T07:53:36;30.50;;;13.80;;
75550;SDS011;65071;53.082;18.218;2023-02-28T07:56:02;28.50;;;14.20;;
75550;SDS011;65071;53.082;18.218;2023-02-28T07:58:30;35.40;;;14.10;;
75550;SDS011;65071;53.082;18.218;2023-02-28T08:00:57;36.90;;;17.00;;
75550;SDS011;65071;53.082;18.218;2023-02-28T08:03:30;34.00;;;13.70;;
75550;SDS011;65071;53.082;18.218;2023-02-28T08:05:57;32.80;;;14.80;;
75550;SDS011;65071;53.082;18.218;2023-02-28T08:08:27;35.20;;;14.60;;
75550;SDS011;65071;53.082;18.218;2023-02-28T08:11:01;33.20;;;13.60;;
75550;SDS011;65071;53.082;18.218;2023-02-28T08:13:29;30.70;;;14.00;;
75550;SDS011;65071;53.082;18.218;2023-02-28T08:15:56;27.80;;;12.30;;
75550;SDS011;65071;53.082;18.218;2023-02-28T08:18:23;30.30;;;13.60;;
75550;SDS011;65071;53.082;18.218;2023-02-28T08:20:50;33.80;;;15.50;;
75550;SDS011;65071;53.082;18.218;2023-02-28T08:23:17;32.20;;;15.20;;
75550;SDS011;65071;53.082;18.218;2023-02-28T08:25:43;32.50;;;14.40;;
75550;SDS011;65071;53.082;18.218;2023-02-28T08:28:11;28.30;;;12.30;;
75550;SDS011;65071;53.082;18.218;2023-02-28T08:30:37;25.60;;;14.10;;
75550;SDS011;65071;53.082;18.218;2023-02-28T08:33:07;25.80;;;12.70;;
75550;SDS011;65071;53.082;18.218;2023-02-28T08:35:35;23.30;;;11.90;;
75550;SDS011;65071;53.082;18.218;2023-02-28T08:40:30;28.90;;;12.40;;
75550;SDS011;65071;53.082;18.218;2023-02-28T08:42:57;28.10;;;12.00;;
75550;SDS011;65071;53.082;18.218;2023-02-28T08:45:24;27.20;;;12.20;;
75550;SDS011;65071;53.082;18.218;2023-02-28T08:47:51;27.50;;;12.50;;
75550;SDS011;65071;53.082;18.218;2023-02-28T08:50:21;23.40;;;12.00;;
75550;SDS011;65071;53.082;18.218;2023-02-28T08:52:48;21.70;;;10.80;;
75550;SDS011;65071;53.082;18.218;2023-02-28T08:55:14;19.40;;;9.90;;
75550;SDS011;65071;53.082;18.218;2023-02-28T08:57:41;18.00;;;9.00;;
75550;SDS011;65071;53.082;18.218;2023-02-28T09:00:08;16.20;;;7.40;;
75550;SDS011;65071;53.082;18.218;2023-02-28T09:02:40;16.20;;;7.80;;
75550;SDS011;65071;53.082;18.218;2023-02-28T09:05:09;15.40;;;6.60;;
75550;SDS011;65071;53.082;18.218;2023-02-28T09:07:36;13.30;;;6.30;;
75550;SDS011;65071;53.082;18.218;2023-02-28T09:10:04;16.40;;;7.20;;
75550;SDS011;65071;53.082;18.218;2023-02-28T09:12:32;16.90;;;7.90;;
75550;SDS011;65071;53.082;18.218;2023-02-28T09:15:01;14.30;;;7.20;;
75550;SDS011;65071;53.082;18.218;2023-02-28T09:17:28;13.20;;;6.50;;
75550;SDS011;65071;53.082;18.218;2023-02-28T09:19:55;16.70;;;7.60;;
75550;SDS011;65071;53.082;18.218;2023-02-28T09:22:24;18.30;;;7.90;;
75550;SDS011;65071;53.082;18.218;2023-02-28T09:24:51;9.90;;;4.70;;
75550;SDS011;65071;53.082;18.218;2023-02-28T09:27:18;12.70;;;6.30;;
75550;SDS011;65071;53.082;18.218;2023-02-28T09:29:45;14.10;;;6.00;;
75550;SDS011;65071;53.082;18.218;2023-02-28T09:32:12;13.00;;;6.40;;
75550;SDS011;65071;53.082;18.218;2023-02-28T09:34:39;11.10;;;5.50;;
75550;SDS011;65071;53.082;18.218;2023-02-28T09:37:06;13.40;;;5.70;;
75550;SDS011;65071;53.082;18.218;2023-02-28T09:39:32;11.70;;;5.90;;
75550;SDS011;65071;53.082;18.218;2023-02-28T09:41:59;10.20;;;5.40;;
75550;SDS011;65071;53.082;18.218;2023-02-28T09:44:29;9.30;;;4.90;;
75550;SDS011;65071;53.082;18.218;2023-02-28T09:47:05;11.00;;;5.10;;
75550;SDS011;65071;53.082;18.218;2023-02-28T09:49:53;10.20;;;5.10;;
75550;SDS011;65071;53.082;18.218;2023-02-28T09:52:24;7.80;;;3.90;;
75550;SDS011;65071;53.082;18.218;2023-02-28T10:12:04;8.80;;;5.00;;
75550;SDS011;65071;53.082;18.218;2023-02-28T10:14:33;10.90;;;4.70;;
75550;SDS011;65071;53.082;18.218;2023-02-28T10:17:03;9.60;;;5.00;;
75550;SDS011;65071;53.082;18.218;2023-02-28T10:19:42;9.90;;;5.10;;
75550;SDS011;65071;53.082;18.218;2023-02-28T10:24:52;9.40;;;4.70;;
75550;SDS011;65071;53.082;18.218;2023-02-28T10:27:29;9.70;;;4.60;;
75550;SDS011;65071;53.082;18.218;2023-02-28T10:29:59;8.80;;;3.80;;
75550;SDS011;65071;53.082;18.218;2023-02-28T10:32:32;8.30;;;4.20;;
75550;SDS011;65071;53.082;18.218;2023-02-28T10:35:15;8.80;;;3.70;;
75550;SDS011;65071;53.082;18.218;2023-02-28T10:37:46;5.80;;;3.30;;
75550;SDS011;65071;53.082;18.218;2023-02-28T10:45:55;5.50;;;2.50;;
75550;SDS011;65071;53.082;18.218;2023-02-28T10:53:24;7.10;;;3.20;;
75550;SDS011;65071;53.082;18.218;2023-02-28T10:58:26;9.90;;;4.10;;
75550;SDS011;65071;53.082;18.218;2023-02-28T11:00:55;6.20;;;3.00;;
75550;SDS011;65071;53.082;18.218;2023-02-28T11:03:28;5.40;;;2.90;;
75550;SDS011;65071;53.082;18.218;2023-02-28T11:05:58;4.90;;;2.40;;
75550;SDS011;65071;53.082;18.218;2023-02-28T11:08:32;6.70;;;2.80;;
75550;SDS011;65071;53.082;18.218;2023-02-28T11:11:00;3.80;;;2.00;;
75550;SDS011;65071;53.082;18.218;2023-02-28T11:13:33;10.80;;;6.10;;
75550;SDS011;65071;53.082;18.218;2023-02-28T11:16:03;6.80;;;3.30;;
75550;SDS011;65071;53.082;18.218;2023-02-28T11:23:29;4.70;;;2.40;;
75550;SDS011;65071;53.082;18.218;2023-02-28T11:26:01;10.30;;;3.20;;
75550;SDS011;65071;53.082;18.218;2023-02-28T11:28:34;7.40;;;3.50;;
75550;SDS011;65071;53.082;18.218;2023-02-28T11:33:44;7.20;;;3.20;;
75550;SDS011;65071;53.082;18.218;2023-02-28T11:36:25;6.50;;;2.90;;
75550;SDS011;65071;53.082;18.218;2023-02-28T11:39:01;5.50;;;2.80;;
75550;SDS011;65071;53.082;18.218;2023-02-28T11:44:23;5.50;;;3.00;;
75550;SDS011;65071;53.082;18.218;2023-02-28T11:47:00;6.80;;;3.30;;
75550;SDS011;65071;53.082;18.218;2023-02-28T12:03:26;6.60;;;3.80;;
75550;SDS011;65071;53.082;18.218;2023-02-28T12:12:28;8.30;;;3.60;;
75550;SDS011;65071;53.082;18.218;2023-02-28T12:20:54;6.10;;;3.40;;
75550;SDS011;65071;53.082;18.218;2023-02-28T12:23:43;6.80;;;2.70;;
75550;SDS011;65071;53.082;18.218;2023-02-28T12:29:09;6.90;;;3.30;;
75550;SDS011;65071;53.082;18.218;2023-02-28T12:32:09;4.90;;;2.10;;
75550;SDS011;65071;53.082;18.218;2023-02-28T12:34:46;6.70;;;3.20;;
75550;SDS011;65071;53.082;18.218;2023-02-28T12:37:17;6.40;;;2.40;;
75550;SDS011;65071;53.082;18.218;2023-02-28T12:39:51;6.60;;;3.10;;
75550;SDS011;65071;53.082;18.218;2023-02-28T12:42:27;7.50;;;2.90;;
75550;SDS011;65071;53.082;18.218;2023-02-28T12:44:58;6.30;;;3.30;;
75550;SDS011;65071;53.082;18.218;2023-02-28T12:47:27;6.10;;;3.50;;
75550;SDS011;65071;53.082;18.218;2023-02-28T12:52:37;6.30;;;3.30;;
75550;SDS011;65071;53.082;18.218;2023-02-28T12:55:40;6.30;;;3.50;;
75550;SDS011;65071;53.082;18.218;2023-02-28T13:08:59;5.60;;;2.70;;
75550;SDS011;65071;53.082;18.218;2023-02-28T13:11:32;5.50;;;2.60;;
75550;SDS011;65071;53.082;18.218;2023-02-28T13:14:06;6.10;;;3.20;;
75550;SDS011;65071;53.082;18.218;2023-02-28T13:19:18;5.30;;;3.10;;
75550;SDS011;65071;53.082;18.218;2023-02-28T13:21:49;5.80;;;3.30;;
75550;SDS011;65071;53.082;18.218;2023-02-28T13:29:34;6.20;;;3.00;;
75550;SDS011;65071;53.082;18.218;2023-02-28T13:34:34;6.10;;;2.30;;
75550;SDS011;65071;53.082;18.218;2023-02-28T13:52:44;8.10;;;3.20;;
75550;SDS011;65071;53.082;18.218;2023-02-28T13:55:26;6.50;;;2.80;;
75550;SDS011;65071;53.082;18.218;2023-02-28T13:58:19;11.50;;;3.90;;
75550;SDS011;65071;53.082;18.218;2023-02-28T14:06:32;7.10;;;3.80;;
75550;SDS011;65071;53.082;18.218;2023-02-28T14:09:34;4.90;;;2.40;;
75550;SDS011;65071;53.082;18.218;2023-02-28T14:11:55;6.00;;;3.10;;
75550;SDS011;65071;53.082;18.218;2023-02-28T14:14:53;3.00;;;1.70;;
75550;SDS011;65071;53.082;18.218;2023-02-28T14:17:13;6.90;;;3.60;;
75550;SDS011;65071;53.082;18.218;2023-02-28T14:19:43;5.50;;;2.40;;
75550;SDS011;65071;53.082;18.218;2023-02-28T14:28:22;7.20;;;2.80;;
75550;SDS011;65071;53.082;18.218;2023-02-28T14:36:39;5.90;;;3.00;;
75550;SDS011;65071;53.082;18.218;2023-02-28T14:39:14;5.30;;;2.80;;
75550;SDS011;65071;53.082;18.218;2023-02-28T14:41:43;5.00;;;2.70;;
75550;SDS011;65071;53.082;18.218;2023-02-28T14:46:53;6.80;;;3.10;;
75550;SDS011;65071;53.082;18.218;2023-02-28T14:52:05;5.80;;;3.00;;
75550;SDS011;65071;53.082;18.218;2023-02-28T14:54:39;4.40;;;2.40;;
75550;SDS011;65071;53.082;18.218;2023-02-28T14:57:20;4.90;;;2.30;;
75550;SDS011;65071;53.082;18.218;2023-02-28T15:02:41;5.40;;;2.30;;
75550;SDS011;65071;53.082;18.218;2023-02-28T15:07:36;6.90;;;2.60;;
75550;SDS011;65071;53.082;18.218;2023-02-28T15:10:06;5.20;;;2.30;;
75550;SDS011;65071;53.082;18.218;2023-02-28T15:12:34;6.70;;;2.50;;
75550;SDS011;65071;53.082;18.218;2023-02-28T15:15:01;4.50;;;2.00;;
75550;SDS011;65071;53.082;18.218;2023-02-28T15:17:29;6.80;;;2.50;;
75550;SDS011;65071;53.082;18.218;2023-02-28T15:19:56;8.50;;;3.20;;
75550;SDS011;65071;53.082;18.218;2023-02-28T15:22:27;10.30;;;3.90;;
75550;SDS011;65071;53.082;18.218;2023-02-28T15:24:57;7.90;;;3.40;;
75550;SDS011;65071;53.082;18.218;2023-02-28T15:27:26;6.00;;;3.00;;
75550;SDS011;65071;53.082;18.218;2023-02-28T15:29:58;6.10;;;2.90;;
75550;SDS011;65071;53.082;18.218;2023-02-28T15:32:28;5.40;;;2.80;;
75550;SDS011;65071;53.082;18.218;2023-02-28T15:34:59;4.50;;;2.20;;
75550;SDS011;65071;53.082;18.218;2023-02-28T15:37:56;6.90;;;2.70;;
75550;SDS011;65071;53.082;18.218;2023-02-28T15:40:27;4.40;;;2.00;;
75550;SDS011;65071;53.082;18.218;2023-02-28T15:43:04;6.00;;;2.00;;
75550;SDS011;65071;53.082;18.218;2023-02-28T15:45:36;4.10;;;1.90;;
75550;SDS011;65071;53.082;18.218;2023-02-28T15:48:20;5.50;;;2.30;;
75550;SDS011;65071;53.082;18.218;2023-02-28T15:50:52;4.40;;;2.20;;
75550;SDS011;65071;53.082;18.218;2023-02-28T15:53:22;3.20;;;1.90;;
75550;SDS011;65071;53.082;18.218;2023-02-28T15:55:55;4.90;;;2.20;;
75550;SDS011;65071;53.082;18.218;2023-02-28T15:58:26;7.60;;;2.90;;
75550;SDS011;65071;53.082;18.218;2023-02-28T16:01:07;6.50;;;2.60;;
75550;SDS011;65071;53.082;18.218;2023-02-28T16:03:48;8.70;;;3.30;;
75550;SDS011;65071;53.082;18.218;2023-02-28T16:06:24;10.10;;;4.50;;
75550;SDS011;65071;53.082;18.218;2023-02-28T16:09:00;10.20;;;4.90;;
75550;SDS011;65071;53.082;18.218;2023-02-28T16:11:27;10.80;;;4.90;;
75550;SDS011;65071;53.082;18.218;2023-02-28T16:13:55;11.80;;;5.10;;
75550;SDS011;65071;53.082;18.218;2023-02-28T16:16:23;9.10;;;4.70;;
75550;SDS011;65071;53.082;18.218;2023-02-28T16:18:52;8.90;;;4.30;;
75550;SDS011;65071;53.082;18.218;2023-02-28T16:21:19;7.50;;;4.50;;
75550;SDS011;65071;53.082;18.218;2023-02-28T16:23:45;9.30;;;5.10;;
75550;SDS011;65071;53.082;18.218;2023-02-28T16:26:16;9.30;;;3.90;;
75550;SDS011;65071;53.082;18.218;2023-02-28T16:28:47;7.80;;;3.90;;
75550;SDS011;65071;53.082;18.218;2023-02-28T16:31:14;8.90;;;4.20;;
75550;SDS011;65071;53.082;18.218;2023-02-28T16:33:43;9.10;;;4.40;;
75550;SDS011;65071;53.082;18.218;2023-02-28T16:36:15;6.60;;;3.60;;
75550;SDS011;65071;53.082;18.218;2023-02-28T16:38:43;8.40;;;4.40;;
75550;SDS011;65071;53.082;18.218;2023-02-28T16:41:11;17.60;;;9.10;;
75550;SDS011;65071;53.082;18.218;2023-02-28T16:43:43;10.90;;;5.80;;
75550;SDS011;65071;53.082;18.218;2023-02-28T16:46:11;10.50;;;4.40;;
75550;SDS011;65071;53.082;18.218;2023-02-28T16:48:39;9.00;;;4.40;;
75550;SDS011;65071;53.082;18.218;2023-02-28T16:51:13;10.10;;;4.60;;
75550;SDS011;65071;53.082;18.218;2023-02-28T16:53:42;12.20;;;6.00;;
75550;SDS011;65071;53.082;18.218;2023-02-28T16:56:17;14.70;;;6.60;;
75550;SDS011;65071;53.082;18.218;2023-02-28T16:58:46;14.60;;;5.90;;
75550;SDS011;65071;53.082;18.218;2023-02-28T17:01:14;13.40;;;6.00;;
75550;SDS011;65071;53.082;18.218;2023-02-28T17:03:42;12.70;;;4.80;;
75550;SDS011;65071;53.082;18.218;2023-02-28T17:06:14;11.00;;;4.30;;
75550;SDS011;65071;53.082;18.218;2023-02-28T17:08:45;11.70;;;5.10;;
75550;SDS011;65071;53.082;18.218;2023-02-28T17:11:12;12.70;;;4.90;;
75550;SDS011;65071;53.082;18.218;2023-02-28T17:13:39;13.30;;;4.90;;
75550;SDS011;65071;53.082;18.218;2023-02-28T17:16:05;24.80;;;8.90;;
75550;SDS011;65071;53.082;18.218;2023-02-28T17:18:35;45.70;;;16.60;;
75550;SDS011;65071;53.082;18.218;2023-02-28T17:21:02;75.10;;;28.00;;
75550;SDS011;65071;53.082;18.218;2023-02-28T17:23:29;98.00;;;36.40;;
75550;SDS011;65071;53.082;18.218;2023-02-28T17:25:55;94.20;;;36.30;;
75550;SDS011;65071;53.082;18.218;2023-02-28T17:28:22;119.90;;;44.30;;
75550;SDS011;65071;53.082;18.218;2023-02-28T17:30:49;118.90;;;44.20;;